Terminal Aerodrome Forecast
Issued by NWS Glasgow, MT

Home | Current Version | Previous Version | Text Only | Print | Product List | Glossary On
Versions: 1 2 3 4 5 6 7 8 9 10 11 12 13 14
000
FTUS45 KGGW 220200 AAA
TAFGGW
TAF AMD
KGGW 220201Z 2202/2224 30010KT P6SM OVC025
     FM220600 30016KT 5SM -SN OVC012
     FM221800 33016KT P6SM VCSH OVC009=

USA.gov is the U.S. government's official web portal to all federal, state and local government web resources and services.